createdAt,value
2022-08-31T00:02:41.575Z,99521.78
2022-08-31T00:05:10.394Z,99524.63
2022-08-31T00:07:37.245Z,99534.34
2022-08-31T00:10:14.760Z,99518.09
2022-08-31T00:12:43.257Z,99522.13
2022-08-31T00:15:13.108Z,99527.75
2022-08-31T00:17:40.209Z,99530.19
2022-08-31T00:20:08.472Z,99529.94
2022-08-31T00:22:55.099Z,99531.81
2022-08-31T00:25:24.081Z,99527.97
2022-08-31T00:27:50.912Z,99524.69
2022-08-31T00:30:17.815Z,99524.38
2022-08-31T00:32:44.456Z,99530.25
2022-08-31T00:35:11.108Z,99525.34
2022-08-31T00:37:37.911Z,99527.56
2022-08-31T00:40:05.216Z,99527.84
2022-08-31T00:42:32.044Z,99523.44
2022-08-31T00:44:58.793Z,99529.28
2022-08-31T00:47:25.414Z,99524.41
2022-08-31T00:49:52.883Z,99531.91
2022-08-31T00:52:40.129Z,99527.47
2022-08-31T00:55:13.523Z,99514.59
2022-08-31T00:57:43.749Z,99511.34
2022-08-31T01:00:14.659Z,99517.19
2022-08-31T01:02:41.717Z,99512.88
2022-08-31T01:05:09.863Z,99508.78
2022-08-31T01:07:39.209Z,99512.88
2022-08-31T01:10:06.917Z,99514.75
2022-08-31T01:12:33.544Z,99518.00
2022-08-31T01:15:01.829Z,99517.66
2022-08-31T01:17:28.471Z,99517.13
2022-08-31T01:20:06.043Z,99516.28
2022-08-31T01:25:42.443Z,99509.41
2022-08-31T01:28:10.226Z,99512.59
2022-08-31T01:30:38.532Z,99514.94
2022-08-31T01:33:05.551Z,99510.28
2022-08-31T01:35:33.245Z,99507.00
2022-08-31T01:38:00.068Z,99507.16
2022-08-31T01:40:35.454Z,99503.63
2022-08-31T01:43:02.253Z,99504.88
2022-08-31T01:48:27.245Z,99496.16
2022-08-31T01:50:54.295Z,99505.50
2022-08-31T01:53:21.852Z,99502.34
2022-08-31T01:55:48.610Z,99498.03
2022-08-31T01:58:15.365Z,99505.84
2022-08-31T02:01:00.869Z,99497.78
2022-08-31T02:03:27.598Z,99501.28
2022-08-31T02:08:22.854Z,99500.72
2022-08-31T02:10:50.790Z,99495.34
2022-08-31T02:13:18.512Z,99497.69
2022-08-31T02:15:45.569Z,99487.66
2022-08-31T02:18:12.301Z,99490.34
2022-08-31T02:20:39.067Z,99493.97
2022-08-31T02:23:05.671Z,99483.22
2022-08-31T02:25:32.333Z,99482.78
2022-08-31T02:28:01.292Z,99480.31
2022-08-31T02:30:29.054Z,99481.13
2022-08-31T02:32:57.554Z,99482.50
2022-08-31T02:35:24.375Z,99480.31
2022-08-31T02:37:51.762Z,99475.75
2022-08-31T02:40:18.422Z,99483.81
2022-08-31T02:42:52.199Z,99477.84
2022-08-31T02:45:38.923Z,99477.63
2022-08-31T02:48:12.424Z,99480.66
2022-08-31T02:50:46.993Z,99472.25
2022-08-31T02:53:15.436Z,99475.28
2022-08-31T02:55:45.871Z,99473.28
2022-08-31T02:58:13.406Z,99463.03
2022-08-31T03:03:41.044Z,99454.16
2022-08-31T03:09:13.125Z,99462.81
2022-08-31T03:11:39.809Z,99467.34
2022-08-31T03:14:10.523Z,99467.34
2022-08-31T03:16:42.287Z,99471.44
2022-08-31T03:19:10.389Z,99466.88
2022-08-31T03:21:37.176Z,99464.41
2022-08-31T03:24:04.031Z,99458.22
2022-08-31T03:26:30.863Z,99467.09
2022-08-31T03:28:57.471Z,99475.16
2022-08-31T03:32:04.963Z,99472.38
2022-08-31T03:34:34.697Z,99479.00
2022-08-31T03:37:01.430Z,99480.09
2022-08-31T03:39:31.759Z,99484.03
2022-08-31T03:41:58.613Z,99480.91
2022-08-31T03:44:25.321Z,99474.03
2022-08-31T03:46:56.440Z,99480.47
2022-08-31T03:49:23.903Z,99482.00
2022-08-31T03:52:16.815Z,99482.22
2022-08-31T03:54:47.511Z,99497.53
2022-08-31T03:57:14.273Z,99489.72
2022-08-31T03:59:42.753Z,99493.44
2022-08-31T04:02:18.367Z,99486.66
2022-08-31T04:05:04.168Z,99484.56
2022-08-31T04:07:57.249Z,99497.31
2022-08-31T04:10:43.870Z,99495.44
2022-08-31T04:13:28.021Z,99498.69
2022-08-31T04:16:19.326Z,99505.00
2022-08-31T04:19:25.045Z,99499.16
2022-08-31T04:22:01.954Z,99510.25
2022-08-31T04:24:34.831Z,99503.25
2022-08-31T04:27:01.685Z,99502.31
2022-08-31T04:29:29.296Z,99513.16
2022-08-31T04:31:56.168Z,99506.00
2022-08-31T04:34:23.849Z,99511.50
2022-08-31T04:36:50.591Z,99518.84
2022-08-31T04:39:21.011Z,99516.38
2022-08-31T04:41:51.095Z,99519.16
2022-08-31T04:44:20.623Z,99512.97
2022-08-31T04:46:55.942Z,99518.06
2022-08-31T04:49:22.618Z,99527.94
2022-08-31T04:51:49.227Z,99522.84
2022-08-31T04:54:16.111Z,99522.09
2022-08-31T04:56:44.886Z,99528.63
2022-08-31T04:59:20.787Z,99525.44
2022-08-31T05:02:06.348Z,99521.78
2022-08-31T05:04:56.363Z,99523.72
2022-08-31T05:07:24.302Z,99529.06
2022-08-31T05:09:51.147Z,99525.31
2022-08-31T05:12:17.752Z,99517.19
2022-08-31T05:14:44.739Z,99516.34
2022-08-31T05:17:22.133Z,99526.94
2022-08-31T05:19:51.696Z,99516.63
2022-08-31T05:22:18.346Z,99525.75
2022-08-31T05:24:48.237Z,99525.72
2022-08-31T05:27:15.154Z,99526.78
2022-08-31T05:29:41.790Z,99529.66
2022-08-31T05:32:38.352Z,99526.84
2022-08-31T05:35:07.617Z,99525.78
2022-08-31T05:37:34.181Z,99525.25
2022-08-31T05:40:00.913Z,99520.88
2022-08-31T05:42:27.575Z,99525.72
2022-08-31T05:44:54.815Z,99526.22
2022-08-31T05:47:21.665Z,99531.59
2022-08-31T05:49:49.126Z,99531.31
2022-08-31T05:52:19.264Z,99527.72
2022-08-31T05:54:52.350Z,99525.53
2022-08-31T05:57:20.672Z,99519.16
2022-08-31T05:59:50.500Z,99529.56
2022-08-31T06:02:17.454Z,99519.72
2022-08-31T06:04:45.237Z,99532.31
2022-08-31T06:07:11.906Z,99532.13
2022-08-31T06:09:45.840Z,99524.75
2022-08-31T06:12:17.666Z,99523.81
2022-08-31T06:14:47.040Z,99519.09
2022-08-31T06:17:17.329Z,99522.16
2022-08-31T06:19:44.036Z,99525.22
2022-08-31T06:22:11.996Z,99538.34
2022-08-31T06:24:38.679Z,99534.16
2022-08-31T06:27:06.092Z,99543.72
2022-08-31T06:29:34.642Z,99545.16
2022-08-31T06:32:08.288Z,99540.69
2022-08-31T06:34:39.365Z,99539.91
2022-08-31T06:37:07.143Z,99540.03
2022-08-31T06:39:54.131Z,99538.94
2022-08-31T06:42:41.194Z,99539.09
2022-08-31T06:45:27.702Z,99545.06
2022-08-31T06:48:03.419Z,99552.34
2022-08-31T06:50:30.164Z,99554.44
2022-08-31T06:52:57.870Z,99547.63
2022-08-31T06:55:44.835Z,99538.88
2022-08-31T06:58:40.170Z,99537.38
2022-08-31T07:01:35.403Z,99536.78
2022-08-31T07:04:26.304Z,99530.91
2022-08-31T07:06:53.338Z,99535.75
2022-08-31T07:09:20.570Z,99539.78
2022-08-31T07:11:49.613Z,99536.09
2022-08-31T07:14:19.132Z,99518.78
2022-08-31T07:16:46.360Z,99520.06
2022-08-31T07:19:14.167Z,99516.31
2022-08-31T07:21:42.470Z,99508.91
2022-08-31T07:24:11.249Z,99511.00
2022-08-31T07:26:41.897Z,99508.91
2022-08-31T07:29:10.017Z,99512.97
2022-08-31T07:31:42.712Z,99515.91
2022-08-31T07:34:11.148Z,99517.03
2022-08-31T07:37:07.745Z,99518.25
2022-08-31T07:39:56.671Z,99515.59
2022-08-31T07:42:28.639Z,99516.31
2022-08-31T07:44:58.686Z,99507.97
2022-08-31T07:47:29.069Z,99513.97
2022-08-31T07:49:58.423Z,99510.66
2022-08-31T07:52:47.311Z,99513.31
2022-08-31T07:55:35.051Z,99513.88
2022-08-31T07:58:03.402Z,99516.91
2022-08-31T08:00:36.082Z,99515.00
2022-08-31T08:03:07.266Z,99511.34
2022-08-31T08:05:51.974Z,99513.59
2022-08-31T08:08:42.854Z,99525.88
2022-08-31T08:11:18.426Z,99523.81
2022-08-31T08:13:54.367Z,99508.13
2022-08-31T08:16:29.194Z,99517.72
2022-08-31T08:19:06.831Z,99509.09
2022-08-31T08:21:34.104Z,99512.69
2022-08-31T08:24:00.829Z,99513.81
2022-08-31T08:26:54.166Z,99510.09
2022-08-31T08:29:40.686Z,99519.06
2022-08-31T08:32:16.803Z,99510.94
2022-08-31T08:34:44.121Z,99502.22
2022-08-31T08:37:11.491Z,99514.25
2022-08-31T08:39:39.106Z,99515.53
2022-08-31T08:42:13.299Z,99515.91
2022-08-31T08:44:41.705Z,99515.91
2022-08-31T08:47:15.483Z,99512.06
2022-08-31T08:49:54.328Z,99510.22
2022-08-31T08:52:28.747Z,99507.03
2022-08-31T08:55:01.603Z,99504.50
2022-08-31T08:57:34.621Z,99502.03
2022-08-31T09:00:17.811Z,99505.47
2022-08-31T09:03:01.081Z,99501.56
2022-08-31T09:06:02.044Z,99497.50
2022-08-31T09:09:08.733Z,99493.94
2022-08-31T09:11:58.428Z,99499.56
2022-08-31T09:14:33.917Z,99500.47
2022-08-31T09:17:07.851Z,99496.97
2022-08-31T09:19:54.528Z,99495.31
2022-08-31T09:22:21.313Z,99491.59
2022-08-31T09:24:56.221Z,99486.56
2022-08-31T09:28:07.631Z,99480.81
2022-08-31T09:30:43.511Z,99475.19
2022-08-31T09:33:27.519Z,99472.50
2022-08-31T09:36:13.718Z,99476.34
2022-08-31T09:38:42.148Z,99465.22
2022-08-31T09:41:33.547Z,99462.00
2022-08-31T09:44:23.164Z,99456.38
2022-08-31T09:46:53.511Z,99454.63
2022-08-31T09:49:30.102Z,99454.31
2022-08-31T09:52:44.111Z,99460.78
2022-08-31T09:55:14.646Z,99465.47
2022-08-31T09:57:42.661Z,99464.94
2022-08-31T10:00:15.467Z,99472.06
2022-08-31T10:02:43.451Z,99454.00
2022-08-31T10:05:37.031Z,99456.94
2022-08-31T10:08:11.258Z,99450.53
2022-08-31T10:10:39.315Z,99457.94
2022-08-31T10:13:16.329Z,99447.25
2022-08-31T10:15:58.290Z,99459.50
2022-08-31T10:18:57.604Z,99450.66
2022-08-31T10:21:45.673Z,99446.03
2022-08-31T10:24:52.203Z,99447.66
2022-08-31T10:27:31.482Z,99444.69
2022-08-31T10:30:06.738Z,99446.97
2022-08-31T10:32:40.841Z,99445.91
2022-08-31T10:35:20.972Z,99429.56
2022-08-31T10:38:15.706Z,99424.41
2022-08-31T10:41:20.385Z,99429.53
2022-08-31T10:43:53.610Z,99424.81
2022-08-31T10:46:20.478Z,99427.13
2022-08-31T10:48:51.020Z,99431.78
2022-08-31T10:51:20.542Z,99428.16
2022-08-31T10:54:28.690Z,99420.25
2022-08-31T10:57:21.468Z,99423.59
2022-08-31T10:59:57.573Z,99434.03
2022-08-31T11:02:58.405Z,99426.09
2022-08-31T11:05:37.394Z,99426.63
2022-08-31T11:08:28.486Z,99425.66
2022-08-31T11:10:56.734Z,99423.53
2022-08-31T11:13:25.519Z,99418.88
2022-08-31T11:16:04.271Z,99423.06
2022-08-31T11:18:52.155Z,99415.78
2022-08-31T11:21:37.637Z,99413.13
2022-08-31T11:24:20.545Z,99420.19
2022-08-31T11:27:00.939Z,99410.31
2022-08-31T11:29:44.314Z,99415.25
2022-08-31T11:32:21.912Z,99415.41
2022-08-31T11:34:55.046Z,99425.81
2022-08-31T11:37:52.929Z,99415.47
2022-08-31T11:40:41.580Z,99413.47
2022-08-31T11:43:33.403Z,99425.94
2022-08-31T11:46:26.895Z,99421.25
2022-08-31T11:48:54.556Z,99416.44
2022-08-31T11:51:36.145Z,99418.25
2022-08-31T11:54:10.806Z,99409.97
2022-08-31T11:56:40.385Z,99407.41
2022-08-31T11:59:30.176Z,99408.50
2022-08-31T12:02:20.908Z,99410.59
2022-08-31T12:04:57.408Z,99418.13
2022-08-31T12:07:30.251Z,99414.50
2022-08-31T12:10:15.245Z,99417.56
2022-08-31T12:13:09.654Z,99414.38
2022-08-31T12:16:01.390Z,99416.47
2022-08-31T12:18:52.632Z,99418.91
2022-08-31T12:21:47.230Z,99418.59
2022-08-31T12:24:35.910Z,99415.72
2022-08-31T12:27:40.218Z,99420.34
2022-08-31T12:30:17.847Z,99415.66
2022-08-31T12:32:46.262Z,99412.91
2022-08-31T12:35:26.505Z,99415.78
2022-08-31T12:38:08.737Z,99412.00
2022-08-31T12:40:42.328Z,99418.31
2022-08-31T12:43:21.654Z,99412.13
2022-08-31T12:46:13.252Z,99419.19
2022-08-31T12:48:49.396Z,99414.44
2022-08-31T12:51:40.621Z,99417.81
2022-08-31T12:54:33.219Z,99409.09
2022-08-31T12:57:10.726Z,99417.59
2022-08-31T13:00:02.200Z,99408.06
2022-08-31T13:02:32.979Z,99413.94
2022-08-31T13:05:00.166Z,99413.69
2022-08-31T13:07:35.258Z,99408.22
2022-08-31T13:10:30.612Z,99403.19
2022-08-31T13:13:00.351Z,99407.31
2022-08-31T13:15:39.406Z,99404.75
2022-08-31T13:18:15.947Z,99411.19
2022-08-31T13:20:44.980Z,99407.06
2022-08-31T13:23:15.257Z,99412.84
2022-08-31T13:25:42.538Z,99410.84
2022-08-31T13:28:13.691Z,99408.72
2022-08-31T13:30:42.285Z,99411.53
2022-08-31T13:33:24.924Z,99401.41
2022-08-31T13:35:55.199Z,99403.72
2022-08-31T13:38:36.374Z,99399.72
2022-08-31T13:41:03.987Z,99400.59
2022-08-31T13:43:33.421Z,99403.38
2022-08-31T13:46:04.439Z,99403.59
2022-08-31T13:48:33.965Z,99399.78
2022-08-31T13:51:09.710Z,99404.09
2022-08-31T13:53:41.517Z,99412.38
2022-08-31T13:56:54.911Z,99412.16
2022-08-31T13:59:24.434Z,99410.53
2022-08-31T14:01:54.991Z,99409.75
2022-08-31T14:04:49.506Z,99400.22
2022-08-31T14:07:39.128Z,99411.28
2022-08-31T14:10:20.572Z,99415.22
2022-08-31T14:12:59.581Z,99418.31
2022-08-31T14:15:50.513Z,99417.31
2022-08-31T14:18:24.414Z,99412.97
2022-08-31T14:21:23.758Z,99415.25
2022-08-31T14:23:52.029Z,99417.97
2022-08-31T14:26:26.028Z,99423.38
2022-08-31T14:28:55.496Z,99413.25
2022-08-31T14:31:27.021Z,99415.16
2022-08-31T14:33:56.567Z,99416.47
2022-08-31T14:36:24.813Z,99412.44
2022-08-31T14:38:54.221Z,99414.56
2022-08-31T14:41:30.274Z,99418.66
2022-08-31T14:44:09.271Z,99418.00
2022-08-31T14:46:38.195Z,99426.09
2022-08-31T14:49:06.983Z,99426.88
2022-08-31T14:51:35.171Z,99423.94
2022-08-31T14:54:01.843Z,99427.91
2022-08-31T14:56:33.008Z,99443.72
2022-08-31T14:59:03.005Z,99445.81
2022-08-31T15:01:35.632Z,99441.19
2022-08-31T15:04:06.004Z,99441.41
2022-08-31T15:06:33.195Z,99440.91
2022-08-31T15:09:04.138Z,99442.53
2022-08-31T15:11:35.097Z,99434.59
2022-08-31T15:14:05.564Z,99435.91
2022-08-31T15:16:32.204Z,99440.31
2022-08-31T15:18:59.765Z,99441.00
2022-08-31T15:21:26.580Z,99441.63
2022-08-31T15:23:53.181Z,99450.72
2022-08-31T15:26:21.630Z,99452.00
2022-08-31T15:28:52.393Z,99448.81
2022-08-31T15:31:25.928Z,99448.59
2022-08-31T15:33:55.376Z,99464.06
2022-08-31T15:36:25.025Z,99470.69
2022-08-31T15:38:56.947Z,99468.88
2022-08-31T15:41:24.521Z,99469.19
2022-08-31T15:43:52.105Z,99464.34
2022-08-31T15:46:39.942Z,99473.03
2022-08-31T15:49:09.749Z,99468.44
2022-08-31T15:51:49.071Z,99469.81
2022-08-31T15:54:22.460Z,99470.91
2022-08-31T15:56:53.646Z,99475.78
2022-08-31T15:59:24.107Z,99481.22
2022-08-31T16:01:52.954Z,99484.22
2022-08-31T16:04:25.844Z,99482.88
2022-08-31T16:06:52.885Z,99492.09
2022-08-31T16:09:22.823Z,99491.03
2022-08-31T16:11:50.486Z,99496.19
2022-08-31T16:14:18.163Z,99492.13
2022-08-31T16:16:47.704Z,99484.00
2022-08-31T16:19:34.054Z,99481.59
2022-08-31T16:22:02.962Z,99470.47
2022-08-31T16:24:35.956Z,99479.97
2022-08-31T16:27:12.067Z,99488.66
2022-08-31T16:29:41.177Z,99495.69
2022-08-31T16:32:09.330Z,99498.13
2022-08-31T16:34:38.932Z,99508.69
2022-08-31T16:37:10.409Z,99505.44
2022-08-31T16:39:40.491Z,99512.41
2022-08-31T16:42:08.922Z,99514.84
2022-08-31T16:44:37.101Z,99520.22
2022-08-31T16:47:05.301Z,99523.72
2022-08-31T16:49:36.086Z,99524.25
2022-08-31T16:52:06.035Z,99523.97
2022-08-31T16:54:34.056Z,99530.72
2022-08-31T16:57:00.985Z,99527.22
2022-08-31T16:59:29.310Z,99524.75
2022-08-31T17:01:56.408Z,99532.88
2022-08-31T17:04:50.486Z,99532.28
2022-08-31T17:07:13.952Z,99530.44
2022-08-31T17:09:41.289Z,99528.25
2022-08-31T17:12:13.044Z,99526.88
2022-08-31T17:14:46.919Z,99527.41
2022-08-31T17:17:25.441Z,99522.28
2022-08-31T17:19:53.302Z,99520.97
2022-08-31T17:22:30.055Z,99526.66
2022-08-31T17:25:04.483Z,99528.22
2022-08-31T17:27:33.392Z,99528.25
2022-08-31T17:30:05.752Z,99511.97
2022-08-31T17:32:32.664Z,99520.66
2022-08-31T17:34:59.762Z,99526.31
2022-08-31T17:37:32.476Z,99525.25
2022-08-31T17:40:00.292Z,99530.31
2022-08-31T17:42:28.028Z,99535.94
2022-08-31T17:44:56.129Z,99538.91
2022-08-31T17:47:24.041Z,99548.06
2022-08-31T17:49:51.554Z,99552.66
2022-08-31T17:52:20.614Z,99545.34
2022-08-31T17:54:47.671Z,99552.34
2022-08-31T17:57:15.487Z,99553.19
2022-08-31T17:59:46.284Z,99551.53
2022-08-31T18:02:16.601Z,99559.28
2022-08-31T18:04:44.206Z,99569.00
2022-08-31T18:07:11.436Z,99570.94
2022-08-31T18:09:40.401Z,99563.84
2022-08-31T18:12:07.608Z,99567.06
2022-08-31T18:14:35.903Z,99574.13
2022-08-31T18:17:04.552Z,99572.28
2022-08-31T18:19:32.451Z,99575.69
2022-08-31T18:21:59.697Z,99572.94
2022-08-31T18:24:26.501Z,99581.91
2022-08-31T18:26:53.669Z,99582.38
2022-08-31T18:29:24.961Z,99595.63
2022-08-31T18:31:54.186Z,99597.22
2022-08-31T18:34:23.314Z,99598.03
2022-08-31T18:36:51.705Z,99595.34
2022-08-31T18:39:40.827Z,99600.75
2022-08-31T18:42:27.051Z,99593.50
2022-08-31T18:45:12.299Z,99599.97
2022-08-31T18:47:38.930Z,99608.69
2022-08-31T18:50:05.814Z,99609.75
2022-08-31T18:52:32.439Z,99607.50
2022-08-31T18:54:59.824Z,99605.63
2022-08-31T18:57:27.922Z,99599.38
2022-08-31T18:59:54.987Z,99609.13
2022-08-31T19:02:22.895Z,99613.97
2022-08-31T19:04:50.939Z,99606.44
2022-08-31T19:07:18.910Z,99611.50
2022-08-31T19:09:45.989Z,99613.91
2022-08-31T19:12:19.510Z,99620.16
2022-08-31T19:14:50.453Z,99610.69
2022-08-31T19:17:18.902Z,99611.84
2022-08-31T19:19:48.334Z,99609.91
2022-08-31T19:22:16.090Z,99617.69
2022-08-31T19:24:42.899Z,99620.91
2022-08-31T19:27:10.356Z,99616.56
2022-08-31T19:29:38.330Z,99619.03
2022-08-31T19:32:06.208Z,99609.00
2022-08-31T19:34:35.690Z,99610.34
2022-08-31T19:37:02.654Z,99606.56
2022-08-31T19:39:31.803Z,99598.72
2022-08-31T19:42:06.459Z,99600.88
2022-08-31T19:47:24.909Z,99604.94
2022-08-31T19:49:52.859Z,99600.94
2022-08-31T19:52:20.258Z,99596.84
2022-08-31T19:54:48.529Z,99594.41
2022-08-31T19:57:16.754Z,99606.69
2022-08-31T19:59:43.709Z,99605.28
2022-08-31T20:02:11.315Z,99598.47
2022-08-31T20:04:38.180Z,99608.47
2022-08-31T20:07:06.389Z,99599.81
2022-08-31T20:09:33.891Z,99593.59
2022-08-31T20:12:01.972Z,99591.19
2022-08-31T20:14:28.647Z,99605.47
2022-08-31T20:16:55.316Z,99600.66
2022-08-31T20:19:24.905Z,99601.75
2022-08-31T20:21:53.913Z,99609.28
2022-08-31T20:24:22.943Z,99605.75
2022-08-31T20:26:51.771Z,99599.00
2022-08-31T20:29:20.070Z,99605.47
2022-08-31T20:31:48.944Z,99610.09
2022-08-31T20:34:19.271Z,99609.81
2022-08-31T20:36:48.311Z,99608.72
2022-08-31T20:39:16.611Z,99598.19
2022-08-31T20:41:46.246Z,99599.25
2022-08-31T20:44:19.355Z,99604.06
2022-08-31T20:47:05.428Z,99603.81
2022-08-31T20:49:37.422Z,99600.81
2022-08-31T20:52:04.093Z,99601.94
2022-08-31T20:54:31.190Z,99594.34
2022-08-31T20:56:59.758Z,99597.56
2022-08-31T20:59:26.700Z,99593.50
2022-08-31T21:02:01.976Z,99601.91
2022-08-31T21:04:35.739Z,99597.84
2022-08-31T21:07:02.551Z,99591.59
2022-08-31T21:09:29.358Z,99599.72
2022-08-31T21:11:58.318Z,99599.44
2022-08-31T21:14:27.365Z,99594.56
2022-08-31T21:16:55.763Z,99595.91
2022-08-31T21:19:24.026Z,99600.72
2022-08-31T21:21:52.743Z,99596.38
2022-08-31T21:24:20.724Z,99595.56
2022-08-31T21:26:47.974Z,99592.06
2022-08-31T21:29:17.716Z,99593.91
2022-08-31T21:31:54.711Z,99592.78
2022-08-31T21:34:27.030Z,99584.97
2022-08-31T21:36:53.686Z,99584.97
2022-08-31T21:39:21.733Z,99581.47
2022-08-31T21:41:49.458Z,99577.13
2022-08-31T21:44:18.056Z,99587.41
2022-08-31T21:46:50.304Z,99580.59
2022-08-31T21:49:18.174Z,99579.78
2022-08-31T21:51:56.162Z,99580.34
2022-08-31T21:54:27.114Z,99579.13
2022-08-31T21:56:59.463Z,99573.09
2022-08-31T21:59:28.465Z,99576.47
2022-08-31T22:02:00.261Z,99577.38
2022-08-31T22:04:28.272Z,99573.31
2022-08-31T22:06:56.040Z,99576.47
2022-08-31T22:09:23.910Z,99573.09
2022-08-31T22:11:53.986Z,99574.94
2022-08-31T22:14:26.245Z,99569.03
2022-08-31T22:16:54.172Z,99571.13
2022-08-31T22:19:25.646Z,99572.03
2022-08-31T22:21:55.753Z,99562.84
2022-08-31T22:25:12.259Z,99559.63
2022-08-31T22:27:57.009Z,99560.34
2022-08-31T22:30:24.043Z,99566.84
2022-08-31T22:32:51.014Z,99559.38
2022-08-31T22:35:17.876Z,99559.94
2022-08-31T22:37:44.839Z,99553.47
2022-08-31T22:40:17.598Z,99557.88
2022-08-31T22:51:50.817Z,99551.81
2022-08-31T22:54:19.641Z,99552.88
2022-08-31T22:59:39.015Z,99545.84
2022-08-31T23:02:05.800Z,99548.34
2022-08-31T23:04:33.719Z,99550.47
2022-08-31T23:07:01.511Z,99546.66
2022-08-31T23:09:30.826Z,99551.47
2022-08-31T23:11:59.906Z,99559.28
2022-08-31T23:14:26.955Z,99557.41
2022-08-31T23:16:57.169Z,99556.88
2022-08-31T23:19:28.385Z,99546.47
2022-08-31T23:21:56.738Z,99546.53
2022-08-31T23:24:28.644Z,99562.28
2022-08-31T23:27:01.609Z,99544.97
2022-08-31T23:29:31.688Z,99547.06
2022-08-31T23:31:59.658Z,99534.44
2022-08-31T23:34:27.161Z,99538.50
2022-08-31T23:36:55.244Z,99539.84
2022-08-31T23:39:23.603Z,99535.28
2022-08-31T23:41:50.566Z,99537.13
2022-08-31T23:44:21.110Z,99538.97
2022-08-31T23:46:48.662Z,99535.91
2022-08-31T23:49:17.468Z,99536.56
2022-08-31T23:51:44.501Z,99537.63
2022-08-31T23:54:12.661Z,99537.06
2022-08-31T23:56:41.840Z,99536.50
2022-08-31T23:59:12.095Z,99536.31
